METAR Data
IDs: Format: Raw Decoded Include TAF

Data at: 0241 UTC 29 Nov 2020

METAR for:KORD (Chicago/O'Hare Intl, IL, US)
Text:KORD 290151Z 22013G24KT 10SM CLR 07/02 A3003 RMK AO2 SLP175 T00720017 $
Temperature: 7.2°C ( 45°F)
Dewpoint: 1.7°C ( 35°F) [RH = 68%]
Pressure (altimeter):30.03 inches Hg (1017.0 mb) [Sea level pressure: 1017.5 mb]
Winds:from the SW (220 degrees) at 15 MPH (13 knots; 6.7 m/s) gusting to 28 MPH (24 knots; 12.3 m/s)
Visibility:10 or more sm (16+ km)
Ceiling:at least 12,000 feet AGL
Clouds:sky clear below 12,000 feet AGL
QC Flag:SOME DATA ABOVE MAY BE INACCURATE!!!"$" is an indication the sensor requires maintenance.